CPA783 VHHH-WADD
Flight info
| Callsign | CPA783 |
|---|---|
| Flight time | N/A |
| Altitude | 40000 |
| Route | DALOL V652 SABNO/N0487F390 A583 AKOTA/N0487F400 M754 VINIK M522 ELANG/N0485F410 M522 DOBMA |
| Aircraft | A359/H-SDE2E3GHIJ3J4J5LM1ORWXY/LB1D1 |
Departure
| Time | N/A |
|---|---|
| Airport | Hong Kong International Airport (VHHH) |
Arrival
| Time | 2026-04-27 11:45 |
|---|---|
| Airport | Denpasar I Gusti Ngurah Rai International Airport (WADD) |
| Time | Latitude | Longitude | Altitude | Speed | Heading |
|---|---|---|---|---|---|
| 2026-04-27 08:55 | 12.57839 | 116.71418 | 40837 ft | 480 kts | 189° |
| 2026-04-27 08:55 | 12.54520 | 116.71004 | 40837 ft | 480 kts | 189° |
| 2026-04-27 08:56 | 12.47874 | 116.70176 | 40835 ft | 480 kts | 188° |
| 2026-04-27 08:56 | 12.41234 | 116.69349 | 40834 ft | 480 kts | 188° |
| 2026-04-27 08:57 | 12.31279 | 116.68109 | 40835 ft | 480 kts | 188° |
| 2026-04-27 08:58 | 12.24676 | 116.67288 | 40834 ft | 480 kts | 188° |
| 2026-04-27 08:58 | 12.18041 | 116.66463 | 40834 ft | 480 kts | 188° |
| 2026-04-27 08:59 | 12.11409 | 116.65639 | 40831 ft | 480 kts | 188° |
| 2026-04-27 08:59 | 12.04770 | 116.64814 | 40828 ft | 480 kts | 188° |
| 2026-04-27 09:00 | 11.98133 | 116.63990 | 40830 ft | 480 kts | 188° |
| 2026-04-27 09:00 | 11.91484 | 116.63165 | 40830 ft | 480 kts | 188° |
| 2026-04-27 09:01 | 11.84894 | 116.62348 | 40827 ft | 480 kts | 188° |
| 2026-04-27 09:01 | 11.78250 | 116.61525 | 40830 ft | 479 kts | 188° |
| 2026-04-27 09:02 | 11.71620 | 116.60703 | 40830 ft | 479 kts | 188° |
| 2026-04-27 09:02 | 11.64999 | 116.59883 | 40828 ft | 479 kts | 188° |
| 2026-04-27 09:03 | 11.58420 | 116.59068 | 40830 ft | 479 kts | 188° |
| 2026-04-27 09:03 | 11.51806 | 116.58250 | 40828 ft | 479 kts | 188° |
| 2026-04-27 09:04 | 11.45190 | 116.57432 | 40826 ft | 479 kts | 188° |
| 2026-04-27 09:04 | 11.38577 | 116.56615 | 40828 ft | 479 kts | 188° |
| 2026-04-27 09:05 | 11.31953 | 116.55796 | 40826 ft | 479 kts | 188° |
| 2026-04-27 09:05 | 11.25326 | 116.54977 | 40826 ft | 479 kts | 188° |
| 2026-04-27 09:06 | 11.18704 | 116.54162 | 40825 ft | 479 kts | 188° |
| 2026-04-27 09:06 | 11.12074 | 116.53343 | 40825 ft | 479 kts | 188° |
| 2026-04-27 09:07 | 11.05450 | 116.52526 | 40827 ft | 480 kts | 188° |
| 2026-04-27 09:07 | 10.98820 | 116.51708 | 40826 ft | 480 kts | 188° |
| 2026-04-27 09:08 | 10.92235 | 116.50897 | 40827 ft | 480 kts | 188° |
| 2026-04-27 09:08 | 10.85608 | 116.50081 | 40826 ft | 480 kts | 188° |
| 2026-04-27 09:09 | 10.78969 | 116.49263 | 40825 ft | 479 kts | 188° |
| 2026-04-27 09:09 | 10.72341 | 116.48448 | 40825 ft | 479 kts | 188° |
| 2026-04-27 09:10 | 10.65719 | 116.47633 | 40826 ft | 479 kts | 188° |
| 2026-04-27 09:10 | 10.59100 | 116.46819 | 40826 ft | 479 kts | 188° |
| 2026-04-27 09:11 | 10.52487 | 116.46006 | 40825 ft | 479 kts | 188° |
| 2026-04-27 09:11 | 10.45879 | 116.45194 | 40819 ft | 478 kts | 188° |
| 2026-04-27 09:12 | 10.39268 | 116.44383 | 40821 ft | 478 kts | 188° |
| 2026-04-27 09:12 | 10.32656 | 116.43571 | 40819 ft | 478 kts | 188° |
| 2026-04-27 09:13 | 10.26092 | 116.42764 | 40819 ft | 478 kts | 188° |
| 2026-04-27 09:13 | 10.19485 | 116.41956 | 40822 ft | 478 kts | 188° |
| 2026-04-27 09:14 | 10.12876 | 116.41147 | 40820 ft | 478 kts | 188° |
| 2026-04-27 09:14 | 10.06269 | 116.40337 | 40817 ft | 478 kts | 188° |
| 2026-04-27 09:15 | 9.99658 | 116.39527 | 40816 ft | 478 kts | 188° |
| 2026-04-27 09:15 | 9.93053 | 116.38718 | 40816 ft | 478 kts | 188° |
| 2026-04-27 09:16 | 9.86439 | 116.37909 | 40826 ft | 479 kts | 188° |
| 2026-04-27 09:16 | 9.79824 | 116.37100 | 40808 ft | 479 kts | 188° |
| 2026-04-27 09:17 | 9.73237 | 116.36294 | 40816 ft | 479 kts | 188° |
| 2026-04-27 09:17 | 9.66597 | 116.35482 | 40826 ft | 479 kts | 188° |
| 2026-04-27 09:18 | 9.59974 | 116.34673 | 40824 ft | 479 kts | 188° |
| 2026-04-27 09:18 | 9.53345 | 116.33864 | 40814 ft | 479 kts | 188° |
| 2026-04-27 09:19 | 9.46719 | 116.33056 | 40811 ft | 480 kts | 188° |
| 2026-04-27 09:19 | 9.40091 | 116.32247 | 40815 ft | 480 kts | 188° |
| 2026-04-27 09:20 | 9.33463 | 116.31438 | 40806 ft | 480 kts | 188° |
| 2026-04-27 09:20 | 9.26834 | 116.30630 | 40821 ft | 480 kts | 188° |
| 2026-04-27 09:21 | 9.20243 | 116.29833 | 40827 ft | 480 kts | 188° |
| 2026-04-27 09:21 | 9.13618 | 116.29022 | 40807 ft | 479 kts | 188° |
| 2026-04-27 09:22 | 9.06988 | 116.28211 | 40807 ft | 479 kts | 188° |
| 2026-04-27 09:22 | 9.00359 | 116.27403 | 40817 ft | 479 kts | 188° |
| 2026-04-27 09:23 | 8.93734 | 116.26596 | 40805 ft | 479 kts | 188° |
| 2026-04-27 09:23 | 8.87109 | 116.25790 | 40815 ft | 479 kts | 188° |
| 2026-04-27 09:24 | 8.80470 | 116.24983 | 40812 ft | 480 kts | 188° |
| 2026-04-27 09:24 | 8.73846 | 116.24178 | 40800 ft | 480 kts | 188° |
| 2026-04-27 09:25 | 8.67217 | 116.23372 | 40809 ft | 479 kts | 188° |
| 2026-04-27 09:25 | 8.60621 | 116.22620 | 40816 ft | 480 kts | 186° |
| 2026-04-27 09:26 | 8.53952 | 116.22127 | 40813 ft | 480 kts | 185° |
| 2026-04-27 09:26 | 8.47271 | 116.21682 | 40814 ft | 480 kts | 185° |
| 2026-04-27 09:27 | 8.40643 | 116.21204 | 40809 ft | 480 kts | 185° |
| 2026-04-27 09:27 | 8.33960 | 116.20697 | 40809 ft | 480 kts | 185° |
| 2026-04-27 09:28 | 8.27293 | 116.20186 | 40809 ft | 480 kts | 185° |
| 2026-04-27 09:28 | 8.20622 | 116.19676 | 40811 ft | 481 kts | 185° |
| 2026-04-27 09:29 | 8.13978 | 116.19179 | 40805 ft | 481 kts | 185° |
| 2026-04-27 09:29 | 8.07300 | 116.18708 | 40817 ft | 481 kts | 185° |
| 2026-04-27 09:30 | 8.01746 | 116.18318 | 40805 ft | 481 kts | 185° |
| 2026-04-27 09:30 | 7.95059 | 116.17846 | 40806 ft | 481 kts | 185° |
| 2026-04-27 09:31 | 7.88380 | 116.17372 | 40805 ft | 481 kts | 185° |
| 2026-04-27 09:31 | 7.81692 | 116.16897 | 40805 ft | 481 kts | 185° |
| 2026-04-27 09:32 | 7.74998 | 116.16422 | 40805 ft | 481 kts | 185° |
| 2026-04-27 09:32 | 7.68313 | 116.15947 | 40801 ft | 481 kts | 185° |
| 2026-04-27 09:33 | 7.61637 | 116.15474 | 40810 ft | 481 kts | 185° |
| 2026-04-27 09:33 | 7.54960 | 116.15000 | 40801 ft | 481 kts | 185° |
| 2026-04-27 09:34 | 7.48327 | 116.14529 | 40800 ft | 481 kts | 185° |
| 2026-04-27 09:34 | 7.41638 | 116.14055 | 40804 ft | 481 kts | 185° |
| 2026-04-27 09:35 | 7.34956 | 116.13583 | 40798 ft | 481 kts | 185° |
| 2026-04-27 09:35 | 7.28278 | 116.13110 | 40807 ft | 481 kts | 185° |
| 2026-04-27 09:36 | 7.21601 | 116.12630 | 40795 ft | 481 kts | 184° |
| 2026-04-27 09:36 | 7.14933 | 116.12153 | 40801 ft | 481 kts | 185° |
| 2026-04-27 09:37 | 7.08255 | 116.11686 | 40810 ft | 481 kts | 185° |
| 2026-04-27 09:37 | 7.01573 | 116.11217 | 40805 ft | 481 kts | 185° |
| 2026-04-27 09:38 | 6.94891 | 116.10747 | 40803 ft | 481 kts | 185° |
| 2026-04-27 09:38 | 6.88253 | 116.10278 | 40798 ft | 481 kts | 185° |
| 2026-04-27 09:39 | 6.81574 | 116.09806 | 40801 ft | 481 kts | 185° |
| 2026-04-27 09:39 | 6.74900 | 116.09335 | 40797 ft | 481 kts | 184° |
| 2026-04-27 09:40 | 6.68236 | 116.08868 | 40796 ft | 480 kts | 184° |
| 2026-04-27 09:40 | 6.61568 | 116.08401 | 40805 ft | 480 kts | 184° |
| 2026-04-27 09:41 | 6.54915 | 116.07935 | 40797 ft | 479 kts | 184° |
| 2026-04-27 09:41 | 6.48271 | 116.07471 | 40798 ft | 478 kts | 184° |
| 2026-04-27 09:42 | 6.41639 | 116.07008 | 40796 ft | 478 kts | 184° |
| 2026-04-27 09:42 | 6.34999 | 116.06544 | 40801 ft | 478 kts | 184° |
| 2026-04-27 09:43 | 6.28359 | 116.06080 | 40797 ft | 478 kts | 184° |
| 2026-04-27 09:43 | 6.21758 | 116.05620 | 40782 ft | 478 kts | 184° |
| 2026-04-27 09:44 | 6.15119 | 116.05157 | 40771 ft | 478 kts | 184° |
| 2026-04-27 09:44 | 6.08462 | 116.04692 | 40759 ft | 479 kts | 184° |
| 2026-04-27 09:45 | 6.01809 | 116.04228 | 40751 ft | 479 kts | 184° |
| 2026-04-27 09:45 | 5.95182 | 116.03766 | 40746 ft | 480 kts | 184° |
| 2026-04-27 09:46 | 5.88511 | 116.03295 | 40739 ft | 480 kts | 185° |
| 2026-04-27 09:46 | 5.81890 | 116.02458 | 40751 ft | 480 kts | 189° |
| 2026-04-27 09:47 | 5.75291 | 116.01420 | 40746 ft | 480 kts | 189° |
| 2026-04-27 09:47 | 5.68722 | 116.00430 | 40751 ft | 480 kts | 188° |
| 2026-04-27 09:48 | 5.62116 | 115.99490 | 40768 ft | 479 kts | 188° |
| 2026-04-27 09:48 | 5.55512 | 115.98567 | 40767 ft | 479 kts | 188° |
| 2026-04-27 09:49 | 5.48900 | 115.97644 | 40775 ft | 479 kts | 188° |
| 2026-04-27 09:49 | 5.42303 | 115.96721 | 40779 ft | 478 kts | 188° |
| 2026-04-27 09:50 | 5.35710 | 115.95797 | 40778 ft | 478 kts | 188° |
| 2026-04-27 09:50 | 5.29117 | 115.94873 | 40786 ft | 478 kts | 188° |
| 2026-04-27 09:51 | 5.22533 | 115.93953 | 40787 ft | 477 kts | 188° |
| 2026-04-27 09:51 | 5.15945 | 115.93091 | 40791 ft | 477 kts | 187° |
| 2026-04-27 09:52 | 5.09360 | 115.92256 | 40795 ft | 477 kts | 187° |
| 2026-04-27 09:52 | 5.02759 | 115.91414 | 40807 ft | 477 kts | 187° |
| 2026-04-27 09:53 | 4.96211 | 115.90573 | 40814 ft | 477 kts | 187° |
| 2026-04-27 09:53 | 4.89622 | 115.89725 | 40820 ft | 477 kts | 187° |
| 2026-04-27 09:54 | 4.83040 | 115.88860 | 40822 ft | 477 kts | 187° |
| 2026-04-27 09:54 | 4.76457 | 115.87949 | 40835 ft | 477 kts | 187° |
| 2026-04-27 09:55 | 4.69937 | 115.87047 | 40839 ft | 477 kts | 187° |
| 2026-04-27 09:55 | 4.60069 | 115.85696 | 40849 ft | 476 kts | 187° |
| 2026-04-27 09:56 | 4.53503 | 115.84801 | 40857 ft | 476 kts | 187° |
| 2026-04-27 09:56 | 4.46924 | 115.83904 | 40863 ft | 476 kts | 187° |
| 2026-04-27 09:57 | 4.40389 | 115.83014 | 40863 ft | 476 kts | 187° |
| 2026-04-27 09:57 | 4.33814 | 115.82118 | 40867 ft | 477 kts | 187° |
| 2026-04-27 09:58 | 4.27484 | 115.81255 | 40870 ft | 477 kts | 187° |
| 2026-04-27 09:58 | 4.20907 | 115.80359 | 40869 ft | 477 kts | 187° |
| 2026-04-27 09:59 | 4.14335 | 115.79465 | 40871 ft | 477 kts | 187° |
| 2026-04-27 09:59 | 4.07795 | 115.78584 | 40870 ft | 477 kts | 187° |
| 2026-04-27 10:00 | 4.01251 | 115.77444 | 40868 ft | 477 kts | 191° |
| 2026-04-27 10:00 | 3.94748 | 115.76113 | 40862 ft | 477 kts | 191° |
| 2026-04-27 10:01 | 3.88237 | 115.74811 | 40862 ft | 477 kts | 190° |
| 2026-04-27 10:01 | 3.81720 | 115.73554 | 40865 ft | 477 kts | 190° |
| 2026-04-27 10:02 | 3.75208 | 115.72315 | 40865 ft | 477 kts | 190° |
| 2026-04-27 10:02 | 3.68672 | 115.71073 | 40861 ft | 477 kts | 190° |
| 2026-04-27 10:03 | 3.62192 | 115.69847 | 40870 ft | 477 kts | 189° |
| 2026-04-27 10:03 | 3.55661 | 115.68604 | 40877 ft | 478 kts | 190° |
| 2026-04-27 10:04 | 3.49127 | 115.67353 | 40870 ft | 478 kts | 190° |
| 2026-04-27 10:04 | 3.42592 | 115.66105 | 40869 ft | 478 kts | 190° |
| 2026-04-27 10:05 | 3.36096 | 115.64867 | 40869 ft | 478 kts | 190° |
| 2026-04-27 10:05 | 3.29558 | 115.63622 | 40865 ft | 478 kts | 190° |
| 2026-04-27 10:06 | 3.23016 | 115.62377 | 40863 ft | 478 kts | 190° |
| 2026-04-27 10:06 | 3.16469 | 115.61131 | 40861 ft | 478 kts | 190° |
| 2026-04-27 10:07 | 3.09930 | 115.59886 | 40860 ft | 478 kts | 190° |
| 2026-04-27 10:07 | 3.03395 | 115.58642 | 40857 ft | 478 kts | 190° |
| 2026-04-27 10:08 | 2.96866 | 115.57399 | 40856 ft | 478 kts | 190° |
| 2026-04-27 10:08 | 2.90368 | 115.56162 | 40857 ft | 478 kts | 190° |
| 2026-04-27 10:09 | 2.83828 | 115.54918 | 40856 ft | 478 kts | 190° |
| 2026-04-27 10:09 | 2.77282 | 115.53673 | 40857 ft | 478 kts | 190° |
| 2026-04-27 10:10 | 2.70742 | 115.52429 | 40856 ft | 478 kts | 190° |
| 2026-04-27 10:10 | 2.64199 | 115.51184 | 40856 ft | 478 kts | 190° |
| 2026-04-27 10:11 | 2.57653 | 115.49939 | 40855 ft | 478 kts | 190° |
| 2026-04-27 10:11 | 2.51151 | 115.48702 | 40851 ft | 479 kts | 190° |
| 2026-04-27 10:12 | 2.44606 | 115.47458 | 40854 ft | 479 kts | 190° |
| 2026-04-27 10:12 | 2.38050 | 115.46212 | 40855 ft | 479 kts | 190° |
| 2026-04-27 10:13 | 2.31508 | 115.44968 | 40853 ft | 479 kts | 190° |
| 2026-04-27 10:13 | 2.24955 | 115.43722 | 40855 ft | 479 kts | 190° |
| 2026-04-27 10:14 | 2.18408 | 115.42477 | 40856 ft | 479 kts | 190° |
| 2026-04-27 10:14 | 2.11855 | 115.41232 | 40861 ft | 479 kts | 190° |
| 2026-04-27 10:15 | 2.05304 | 115.39987 | 40858 ft | 479 kts | 190° |
| 2026-04-27 10:15 | 1.98754 | 115.38743 | 40861 ft | 479 kts | 190° |
| 2026-04-27 10:16 | 1.92250 | 115.37507 | 40862 ft | 479 kts | 190° |
| 2026-04-27 10:16 | 1.85691 | 115.36260 | 40861 ft | 479 kts | 190° |
| 2026-04-27 10:17 | 1.79146 | 115.35015 | 40865 ft | 479 kts | 189° |
| 2026-04-27 10:17 | 1.72609 | 115.33782 | 40868 ft | 479 kts | 190° |
| 2026-04-27 10:18 | 1.67155 | 115.32744 | 40867 ft | 479 kts | 190° |
| 2026-04-27 10:18 | 1.60603 | 115.31496 | 40864 ft | 479 kts | 190° |
| 2026-04-27 10:19 | 1.54052 | 115.30250 | 40867 ft | 479 kts | 189° |
| 2026-04-27 10:19 | 1.47501 | 115.29006 | 40866 ft | 479 kts | 190° |
| 2026-04-27 10:20 | 1.40945 | 115.27761 | 40863 ft | 480 kts | 189° |
| 2026-04-27 10:20 | 1.34378 | 115.26514 | 40859 ft | 480 kts | 189° |
| 2026-04-27 10:21 | 1.27844 | 115.25274 | 40859 ft | 480 kts | 189° |
| 2026-04-27 10:21 | 1.21275 | 115.24026 | 40860 ft | 481 kts | 189° |
| 2026-04-27 10:22 | 1.14695 | 115.22777 | 40861 ft | 481 kts | 189° |
| 2026-04-27 10:22 | 1.08109 | 115.21527 | 40863 ft | 481 kts | 189° |
| 2026-04-27 10:23 | 1.01520 | 115.20276 | 40864 ft | 482 kts | 190° |
| 2026-04-27 10:23 | 0.94935 | 115.19026 | 40860 ft | 482 kts | 189° |
| 2026-04-27 10:24 | 0.88378 | 115.17781 | 40864 ft | 482 kts | 190° |
| 2026-04-27 10:24 | 0.81786 | 115.16529 | 40858 ft | 482 kts | 189° |
| 2026-04-27 10:25 | 0.75192 | 115.15278 | 40854 ft | 482 kts | 190° |
| 2026-04-27 10:25 | 0.68601 | 115.14027 | 40853 ft | 482 kts | 190° |
| 2026-04-27 10:26 | 0.62007 | 115.12776 | 40854 ft | 482 kts | 190° |
| 2026-04-27 10:26 | 0.55441 | 115.11529 | 40846 ft | 482 kts | 190° |
| 2026-04-27 10:27 | 0.48838 | 115.10276 | 40849 ft | 483 kts | 190° |
| 2026-04-27 10:27 | 0.42233 | 115.09022 | 40849 ft | 483 kts | 190° |
| 2026-04-27 10:28 | 0.35633 | 115.07770 | 40847 ft | 483 kts | 190° |
| 2026-04-27 10:28 | 0.29030 | 115.06516 | 40842 ft | 483 kts | 190° |
| 2026-04-27 10:29 | 0.22430 | 115.05263 | 40841 ft | 483 kts | 190° |
| 2026-04-27 10:29 | 0.15835 | 115.04012 | 40839 ft | 482 kts | 190° |
| 2026-04-27 10:30 | 0.09235 | 115.02759 | 40840 ft | 482 kts | 190° |
| 2026-04-27 10:30 | 0.02632 | 115.01506 | 40841 ft | 482 kts | 190° |
| 2026-04-27 10:31 | -0.03915 | 115.00264 | 40838 ft | 482 kts | 190° |
| 2026-04-27 10:31 | -0.10511 | 114.99013 | 40840 ft | 483 kts | 190° |
| 2026-04-27 10:32 | -0.17120 | 114.97759 | 40832 ft | 483 kts | 190° |
| 2026-04-27 10:32 | -0.23737 | 114.96504 | 40828 ft | 483 kts | 189° |
| 2026-04-27 10:33 | -0.30356 | 114.95247 | 40833 ft | 484 kts | 189° |
| 2026-04-27 10:33 | -0.36931 | 114.93998 | 40831 ft | 484 kts | 189° |
| 2026-04-27 10:34 | -0.43544 | 114.92743 | 40831 ft | 484 kts | 189° |
| 2026-04-27 10:34 | -0.50162 | 114.91487 | 40823 ft | 484 kts | 189° |
| 2026-04-27 10:35 | -0.56780 | 114.90231 | 40825 ft | 484 kts | 189° |
| 2026-04-27 10:35 | -0.63407 | 114.88973 | 40825 ft | 484 kts | 189° |
| 2026-04-27 10:36 | -0.70008 | 114.87720 | 40823 ft | 484 kts | 189° |
| 2026-04-27 10:36 | -0.76640 | 114.86461 | 40821 ft | 484 kts | 189° |
| 2026-04-27 10:37 | -0.83269 | 114.85203 | 40823 ft | 484 kts | 189° |
| 2026-04-27 10:37 | -0.89874 | 114.83955 | 40820 ft | 484 kts | 189° |
| 2026-04-27 10:38 | -0.96581 | 114.83547 | 40820 ft | 482 kts | 178° |
| 2026-04-27 10:38 | -1.03292 | 114.83699 | 40823 ft | 482 kts | 176° |
| 2026-04-27 10:39 | -1.09995 | 114.83935 | 40824 ft | 482 kts | 176° |
| 2026-04-27 10:39 | -1.16702 | 114.84166 | 40827 ft | 482 kts | 176° |
| 2026-04-27 10:40 | -1.23369 | 114.84382 | 40826 ft | 482 kts | 176° |
| 2026-04-27 10:40 | -1.30089 | 114.84593 | 40825 ft | 483 kts | 176° |
| 2026-04-27 10:41 | -1.36808 | 114.84803 | 40828 ft | 483 kts | 176° |
| 2026-04-27 10:41 | -1.43533 | 114.85014 | 40832 ft | 483 kts | 176° |
| 2026-04-27 10:42 | -1.50255 | 114.85225 | 40831 ft | 483 kts | 176° |
| 2026-04-27 10:42 | -1.56991 | 114.85437 | 40829 ft | 483 kts | 176° |
| 2026-04-27 10:43 | -1.63675 | 114.85647 | 40834 ft | 484 kts | 176° |
| 2026-04-27 10:43 | -1.70404 | 114.85859 | 40830 ft | 484 kts | 176° |
| 2026-04-27 10:44 | -1.77134 | 114.86070 | 40833 ft | 484 kts | 176° |
| 2026-04-27 10:44 | -1.83863 | 114.86282 | 40831 ft | 484 kts | 176° |
| 2026-04-27 10:45 | -1.90588 | 114.86493 | 40828 ft | 484 kts | 176° |
| 2026-04-27 10:45 | -1.97319 | 114.86705 | 40832 ft | 483 kts | 176° |
| 2026-04-27 10:46 | -2.04046 | 114.86916 | 40835 ft | 483 kts | 176° |
| 2026-04-27 10:46 | -2.10743 | 114.87127 | 40833 ft | 484 kts | 176° |
| 2026-04-27 10:47 | -2.17469 | 114.87339 | 40830 ft | 483 kts | 176° |
| 2026-04-27 10:47 | -2.24196 | 114.87550 | 40831 ft | 483 kts | 176° |
| 2026-04-27 10:48 | -2.30921 | 114.87762 | 40832 ft | 483 kts | 176° |
| 2026-04-27 10:48 | -2.37656 | 114.87974 | 40831 ft | 483 kts | 176° |
| 2026-04-27 10:49 | -2.44383 | 114.88186 | 40830 ft | 484 kts | 176° |
| 2026-04-27 10:49 | -2.51075 | 114.88396 | 40828 ft | 484 kts | 176° |
| 2026-04-27 10:50 | -2.57809 | 114.88608 | 40831 ft | 484 kts | 176° |
| 2026-04-27 10:50 | -2.64553 | 114.88821 | 40835 ft | 484 kts | 177° |
| 2026-04-27 10:51 | -2.71294 | 114.89033 | 40833 ft | 485 kts | 177° |
| 2026-04-27 10:51 | -2.78043 | 114.89245 | 40833 ft | 485 kts | 177° |
| 2026-04-27 10:52 | -2.84786 | 114.89458 | 40834 ft | 485 kts | 177° |
| 2026-04-27 10:52 | -2.91530 | 114.89670 | 40834 ft | 485 kts | 177° |
| 2026-04-27 10:53 | -3.01665 | 114.89989 | 40833 ft | 485 kts | 177° |
| 2026-04-27 10:54 | -3.08378 | 114.90200 | 40833 ft | 485 kts | 177° |
| 2026-04-27 10:54 | -3.15136 | 114.90413 | 40834 ft | 485 kts | 177° |
| 2026-04-27 10:55 | -3.21904 | 114.90627 | 40832 ft | 485 kts | 177° |
| 2026-04-27 10:55 | -3.28656 | 114.90839 | 40832 ft | 485 kts | 177° |
| 2026-04-27 10:56 | -3.35404 | 114.91052 | 40831 ft | 485 kts | 177° |
| 2026-04-27 10:56 | -3.42153 | 114.91265 | 40831 ft | 485 kts | 177° |
| 2026-04-27 10:57 | -3.48850 | 114.91473 | 40828 ft | 484 kts | 177° |
| 2026-04-27 10:57 | -3.55585 | 114.91683 | 40834 ft | 482 kts | 177° |
| 2026-04-27 10:58 | -3.62305 | 114.91898 | 40837 ft | 482 kts | 177° |
| 2026-04-27 10:58 | -3.69012 | 114.92111 | 40840 ft | 482 kts | 177° |
| 2026-04-27 10:59 | -3.75682 | 114.92322 | 40844 ft | 482 kts | 177° |
| 2026-04-27 10:59 | -3.82382 | 114.92533 | 40840 ft | 482 kts | 177° |
| 2026-04-27 11:00 | -3.92436 | 114.92851 | 40840 ft | 481 kts | 177° |
| 2026-04-27 11:00 | -3.99135 | 114.93062 | 40837 ft | 481 kts | 177° |
| 2026-04-27 11:01 | -4.05837 | 114.93273 | 40837 ft | 481 kts | 177° |
| 2026-04-27 11:01 | -4.12528 | 114.93485 | 40839 ft | 481 kts | 177° |
| 2026-04-27 11:02 | -4.19174 | 114.93695 | 40839 ft | 480 kts | 177° |
| 2026-04-27 11:02 | -4.25855 | 114.93906 | 40832 ft | 480 kts | 177° |
| 2026-04-27 11:03 | -4.32526 | 114.94112 | 40838 ft | 480 kts | 177° |
| 2026-04-27 11:03 | -4.39197 | 114.94409 | 40840 ft | 479 kts | 175° |
| 2026-04-27 11:04 | -4.45845 | 114.94810 | 40840 ft | 479 kts | 175° |
| 2026-04-27 11:04 | -4.51373 | 114.95130 | 40836 ft | 479 kts | 175° |
| 2026-04-27 11:05 | -4.58031 | 114.95507 | 40835 ft | 478 kts | 175° |
| 2026-04-27 11:05 | -4.64678 | 114.95882 | 40836 ft | 478 kts | 175° |
| 2026-04-27 11:06 | -4.71329 | 114.96255 | 40837 ft | 478 kts | 175° |
| 2026-04-27 11:06 | -4.77973 | 114.96629 | 40837 ft | 478 kts | 175° |
| 2026-04-27 11:07 | -4.84625 | 114.97002 | 40838 ft | 478 kts | 175° |
| 2026-04-27 11:07 | -4.91245 | 114.97374 | 40837 ft | 478 kts | 175° |
| 2026-04-27 11:08 | -4.97907 | 114.97749 | 40838 ft | 479 kts | 175° |
| 2026-04-27 11:08 | -5.04572 | 114.98123 | 40838 ft | 479 kts | 175° |
| 2026-04-27 11:09 | -5.11187 | 114.98495 | 40835 ft | 479 kts | 175° |
| 2026-04-27 11:09 | -5.17845 | 114.98869 | 40842 ft | 479 kts | 175° |
| 2026-04-27 11:10 | -5.24506 | 114.99244 | 40840 ft | 479 kts | 175° |
| 2026-04-27 11:10 | -5.31157 | 114.99618 | 40843 ft | 479 kts | 175° |
| 2026-04-27 11:11 | -5.37826 | 114.99993 | 40840 ft | 479 kts | 175° |
| 2026-04-27 11:11 | -5.44454 | 115.00366 | 40840 ft | 479 kts | 175° |
| 2026-04-27 11:12 | -5.51119 | 115.00741 | 40843 ft | 479 kts | 175° |
| 2026-04-27 11:12 | -5.57785 | 115.01117 | 40843 ft | 479 kts | 175° |
| 2026-04-27 11:13 | -5.64448 | 115.01492 | 40844 ft | 479 kts | 175° |
| 2026-04-27 11:13 | -5.71100 | 115.01867 | 40844 ft | 479 kts | 175° |
| 2026-04-27 11:14 | -5.77751 | 115.02242 | 40844 ft | 479 kts | 175° |
| 2026-04-27 11:14 | -5.84360 | 115.02614 | 40844 ft | 479 kts | 175° |
| 2026-04-27 11:15 | -5.91019 | 115.02989 | 40847 ft | 480 kts | 175° |
| 2026-04-27 11:15 | -5.97686 | 115.03365 | 40844 ft | 480 kts | 175° |
| 2026-04-27 11:16 | -6.04359 | 115.03742 | 40847 ft | 481 kts | 175° |
| 2026-04-27 11:16 | -6.11055 | 115.04119 | 40846 ft | 481 kts | 175° |
| 2026-04-27 11:17 | -6.17749 | 115.04497 | 40844 ft | 482 kts | 175° |
| 2026-04-27 11:17 | -6.24440 | 115.04875 | 40844 ft | 482 kts | 175° |
| 2026-04-27 11:18 | -6.31141 | 115.05253 | 40850 ft | 482 kts | 175° |
| 2026-04-27 11:18 | -6.37854 | 115.05632 | 40847 ft | 483 kts | 175° |
| 2026-04-27 11:19 | -6.44531 | 115.06009 | 40848 ft | 483 kts | 175° |
| 2026-04-27 11:19 | -6.51247 | 115.06389 | 40848 ft | 484 kts | 175° |
| 2026-04-27 11:20 | -6.57973 | 115.06769 | 40850 ft | 484 kts | 175° |
| 2026-04-27 11:20 | -6.64701 | 115.07149 | 40849 ft | 484 kts | 175° |
| 2026-04-27 11:21 | -6.71424 | 115.07530 | 40849 ft | 483 kts | 175° |
| 2026-04-27 11:21 | -6.78140 | 115.07916 | 40850 ft | 483 kts | 175° |
| 2026-04-27 11:22 | -6.81455 | 115.08406 | 40848 ft | 482 kts | 164° |
| 2026-04-27 11:22 | -6.84584 | 115.09572 | 40854 ft | 479 kts | 151° |
| 2026-04-27 11:22 | -6.90162 | 115.13133 | 40864 ft | 479 kts | 145° |
| 2026-04-27 11:23 | -6.95722 | 115.16894 | 40857 ft | 482 kts | 145° |
| 2026-04-27 11:23 | -7.01319 | 115.20649 | 40857 ft | 482 kts | 145° |
| 2026-04-27 11:24 | -7.04079 | 115.22499 | 40730 ft | 483 kts | 145° |
| 2026-04-27 11:24 | -7.06870 | 115.24369 | 40256 ft | 480 kts | 145° |
| 2026-04-27 11:24 | -7.09657 | 115.26237 | 39572 ft | 482 kts | 145° |
| 2026-04-27 11:24 | -7.12452 | 115.28110 | 38892 ft | 484 kts | 145° |
| 2026-04-27 11:25 | -7.15259 | 115.29992 | 38187 ft | 485 kts | 145° |
| 2026-04-27 11:25 | -7.18073 | 115.31879 | 37425 ft | 487 kts | 145° |
| 2026-04-27 11:25 | -7.20900 | 115.33775 | 36694 ft | 489 kts | 145° |
| 2026-04-27 11:25 | -7.23762 | 115.35695 | 35960 ft | 494 kts | 145° |
| 2026-04-27 11:26 | -7.26626 | 115.37618 | 35268 ft | 496 kts | 145° |
| 2026-04-27 11:26 | -7.29466 | 115.39522 | 34606 ft | 496 kts | 145° |
| 2026-04-27 11:26 | -7.32347 | 115.41454 | 33945 ft | 496 kts | 145° |
| 2026-04-27 11:26 | -7.35227 | 115.43388 | 33221 ft | 496 kts | 145° |
| 2026-04-27 11:27 | -7.38108 | 115.45322 | 32486 ft | 496 kts | 145° |
| 2026-04-27 11:27 | -7.40977 | 115.47247 | 31792 ft | 495 kts | 145° |
| 2026-04-27 11:27 | -7.43849 | 115.49176 | 31113 ft | 495 kts | 144° |
| 2026-04-27 11:27 | -7.46710 | 115.51097 | 30452 ft | 494 kts | 144° |
| 2026-04-27 11:28 | -7.49535 | 115.52994 | 29773 ft | 493 kts | 144° |
| 2026-04-27 11:28 | -7.52392 | 115.54913 | 29014 ft | 492 kts | 144° |
| 2026-04-27 11:28 | -7.55232 | 115.56821 | 28269 ft | 490 kts | 144° |
| 2026-04-27 11:28 | -7.58141 | 115.58614 | 27541 ft | 491 kts | 152° |
| 2026-04-27 11:29 | -7.61357 | 115.59770 | 26838 ft | 492 kts | 163° |
| 2026-04-27 11:29 | -7.64691 | 115.60556 | 26147 ft | 490 kts | 166° |
| 2026-04-27 11:29 | -7.68011 | 115.61296 | 25474 ft | 487 kts | 165° |
| 2026-04-27 11:29 | -7.71321 | 115.62041 | 24815 ft | 485 kts | 165° |
| 2026-04-27 11:30 | -7.74563 | 115.62778 | 24183 ft | 482 kts | 165° |
| 2026-04-27 11:30 | -7.77823 | 115.63524 | 23562 ft | 479 kts | 165° |
| 2026-04-27 11:30 | -7.81067 | 115.64269 | 22834 ft | 476 kts | 165° |
| 2026-04-27 11:30 | -7.84240 | 115.64999 | 22103 ft | 453 kts | 165° |
| 2026-04-27 11:31 | -7.87240 | 115.65688 | 21414 ft | 428 kts | 165° |
| 2026-04-27 11:31 | -7.90126 | 115.66354 | 20735 ft | 425 kts | 165° |
| 2026-04-27 11:31 | -7.92979 | 115.67016 | 20061 ft | 426 kts | 165° |
| 2026-04-27 11:31 | -7.95901 | 115.67693 | 19379 ft | 426 kts | 165° |
| 2026-04-27 11:32 | -7.98736 | 115.68418 | 18731 ft | 424 kts | 160° |
| 2026-04-27 11:32 | -8.01476 | 115.69493 | 18202 ft | 419 kts | 159° |
| 2026-04-27 11:32 | -8.04315 | 115.70036 | 17924 ft | 411 kts | 175° |
| 2026-04-27 11:32 | -8.07123 | 115.69868 | 17876 ft | 397 kts | 187° |
| 2026-04-27 11:33 | -8.09795 | 115.69371 | 17719 ft | 385 kts | 189° |
| 2026-04-27 11:33 | -8.12415 | 115.68833 | 17259 ft | 381 kts | 189° |
| 2026-04-27 11:33 | -8.15006 | 115.68294 | 16777 ft | 379 kts | 189° |
| 2026-04-27 11:33 | -8.17553 | 115.67764 | 16296 ft | 377 kts | 189° |
| 2026-04-27 11:34 | -8.20113 | 115.67231 | 15815 ft | 375 kts | 189° |
| 2026-04-27 11:34 | -8.22676 | 115.66698 | 15338 ft | 372 kts | 189° |
| 2026-04-27 11:34 | -8.25210 | 115.66170 | 14874 ft | 370 kts | 189° |
| 2026-04-27 11:34 | -8.27722 | 115.65647 | 14417 ft | 367 kts | 189° |
| 2026-04-27 11:35 | -8.30192 | 115.65133 | 13976 ft | 365 kts | 189° |
| 2026-04-27 11:35 | -8.32665 | 115.64618 | 13509 ft | 362 kts | 189° |
| 2026-04-27 11:35 | -8.35132 | 115.64106 | 13009 ft | 359 kts | 189° |
| 2026-04-27 11:35 | -8.37579 | 115.63597 | 12502 ft | 357 kts | 189° |
| 2026-04-27 11:36 | -8.40012 | 115.63087 | 12026 ft | 354 kts | 189° |
| 2026-04-27 11:36 | -8.42418 | 115.62585 | 11536 ft | 351 kts | 189° |
| 2026-04-27 11:36 | -8.44809 | 115.62088 | 11066 ft | 349 kts | 189° |
| 2026-04-27 11:36 | -8.47151 | 115.61601 | 10605 ft | 347 kts | 189° |
| 2026-04-27 11:37 | -8.49515 | 115.61108 | 10146 ft | 344 kts | 189° |
| 2026-04-27 11:37 | -8.51852 | 115.60622 | 9681 ft | 342 kts | 189° |
| 2026-04-27 11:37 | -8.54174 | 115.60139 | 9182 ft | 339 kts | 189° |
| 2026-04-27 11:37 | -8.56450 | 115.59665 | 8691 ft | 336 kts | 189° |
| 2026-04-27 11:38 | -8.58724 | 115.59192 | 8196 ft | 333 kts | 189° |
| 2026-04-27 11:38 | -8.60973 | 115.58683 | 7716 ft | 330 kts | 194° |
| 2026-04-27 11:38 | -8.62971 | 115.57581 | 7271 ft | 330 kts | 221° |
| 2026-04-27 11:38 | -8.64354 | 115.55771 | 7051 ft | 320 kts | 238° |
| 2026-04-27 11:39 | -8.65455 | 115.53878 | 7014 ft | 303 kts | 239° |
| 2026-04-27 11:39 | -8.66504 | 115.52071 | 6907 ft | 293 kts | 238° |
| 2026-04-27 11:39 | -8.67534 | 115.50336 | 6642 ft | 290 kts | 238° |
| 2026-04-27 11:39 | -8.68579 | 115.48600 | 6373 ft | 288 kts | 238° |
| 2026-04-27 11:40 | -8.69622 | 115.46881 | 6071 ft | 287 kts | 237° |
| 2026-04-27 11:40 | -8.70674 | 115.45159 | 5667 ft | 287 kts | 237° |
| 2026-04-27 11:40 | -8.71699 | 115.43478 | 5151 ft | 275 kts | 237° |
| 2026-04-27 11:40 | -8.72696 | 115.41847 | 4502 ft | 271 kts | 237° |
| 2026-04-27 11:41 | -8.73626 | 115.40199 | 3797 ft | 268 kts | 246° |
| 2026-04-27 11:41 | -8.74067 | 115.38421 | 3288 ft | 260 kts | 266° |
| 2026-04-27 11:41 | -8.74084 | 115.36649 | 3052 ft | 242 kts | 271° |
| 2026-04-27 11:41 | -8.74094 | 115.35037 | 3026 ft | 217 kts | 267° |
| 2026-04-27 11:42 | -8.74172 | 115.33580 | 2978 ft | 202 kts | 266° |
| 2026-04-27 11:42 | -8.74234 | 115.32176 | 2732 ft | 199 kts | 268° |
| 2026-04-27 11:42 | -8.74285 | 115.30770 | 2418 ft | 201 kts | 267° |
| 2026-04-27 11:42 | -8.74341 | 115.29357 | 2142 ft | 199 kts | 267° |
| 2026-04-27 11:43 | -8.74396 | 115.27990 | 1892 ft | 190 kts | 267° |
| 2026-04-27 11:43 | -8.74447 | 115.26695 | 1657 ft | 179 kts | 267° |
| 2026-04-27 11:43 | -8.74496 | 115.25469 | 1425 ft | 173 kts | 267° |
| 2026-04-27 11:43 | -8.74542 | 115.24281 | 1207 ft | 164 kts | 266° |
| 2026-04-27 11:44 | -8.74589 | 115.23152 | 1010 ft | 156 kts | 267° |
| 2026-04-27 11:44 | -8.74631 | 115.22083 | 814 ft | 149 kts | 268° |
| 2026-04-27 11:44 | -8.74669 | 115.21076 | 814 ft | 128 kts | 266° |
| 2026-04-27 11:44 | -8.74710 | 115.20080 | 538 ft | 154 kts | 264° |
| 2026-04-27 11:45 | -8.74761 | 115.19019 | 284 ft | 149 kts | 265° |
| 2026-04-27 11:45 | -8.74783 | 115.18324 | 139 ft | 145 kts | 266° |
| 2026-04-27 11:45 | -8.74829 | 115.17064 | 27 ft | 109 kts | 268° |
| 2026-04-27 11:45 | -8.74847 | 115.16587 | 27 ft | 38 kts | 268° |
| 2026-04-27 11:46 | -8.74802 | 115.16347 | 27 ft | 22 kts | 298° |
| 2026-04-27 11:46 | -8.74784 | 115.16314 | 27 ft | 8 kts | 301° |
| 2026-04-27 11:46 | -8.74711 | 115.16292 | 27 ft | 13 kts | 24° |
| 2026-04-27 11:46 | -8.74683 | 115.16349 | 27 ft | 9 kts | 89° |
| 2026-04-27 11:47 | -8.74682 | 115.16400 | 27 ft | 13 kts | 89° |
| 2026-04-27 11:47 | -8.74627 | 115.16439 | 27 ft | 11 kts | 358° |
| 2026-04-27 11:47 | -8.74591 | 115.16436 | 27 ft | 0 kts | 355° |
| 2026-04-27 11:47 | -8.74587 | 115.16436 | 27 ft | 0 kts | 355° |